sensor_id;sensor_type;location;lat;lon;timestamp;temperature;humidity
30288;DHT22;17103;48.316;11.558;2023-05-10T00:01:07;19.00;51.00
30288;DHT22;17103;48.316;11.558;2023-05-10T00:03:33;18.90;50.50
30288;DHT22;17103;48.316;11.558;2023-05-10T00:05:59;19.00;50.80
30288;DHT22;17103;48.316;11.558;2023-05-10T00:08:25;19.00;50.60
30288;DHT22;17103;48.316;11.558;2023-05-10T00:10:51;19.00;51.10
30288;DHT22;17103;48.316;11.558;2023-05-10T00:13:17;19.00;51.20
30288;DHT22;17103;48.316;11.558;2023-05-10T00:15:43;19.00;51.50
30288;DHT22;17103;48.316;11.558;2023-05-10T00:18:08;19.00;50.80
30288;DHT22;17103;48.316;11.558;2023-05-10T00:20:34;19.00;51.10
30288;DHT22;17103;48.316;11.558;2023-05-10T00:23:00;19.00;50.80
30288;DHT22;17103;48.316;11.558;2023-05-10T00:25:25;19.10;50.80
30288;DHT22;17103;48.316;11.558;2023-05-10T00:27:51;19.00;50.80
30288;DHT22;17103;48.316;11.558;2023-05-10T00:30:17;19.20;51.40
30288;DHT22;17103;48.316;11.558;2023-05-10T00:32:43;19.00;51.10
30288;DHT22;17103;48.316;11.558;2023-05-10T00:35:09;19.00;51.10
30288;DHT22;17103;48.316;11.558;2023-05-10T00:37:35;19.00;51.30
30288;DHT22;17103;48.316;11.558;2023-05-10T00:40:00;19.10;51.00
30288;DHT22;17103;48.316;11.558;2023-05-10T00:42:26;19.10;51.70
30288;DHT22;17103;48.316;11.558;2023-05-10T00:44:54;19.10;51.20
30288;DHT22;17103;48.316;11.558;2023-05-10T00:47:21;19.10;51.00
30288;DHT22;17103;48.316;11.558;2023-05-10T00:49:47;19.10;51.10
30288;DHT22;17103;48.316;11.558;2023-05-10T00:52:13;19.20;52.10
30288;DHT22;17103;48.316;11.558;2023-05-10T00:54:39;19.20;51.40
30288;DHT22;17103;48.316;11.558;2023-05-10T00:57:08;19.20;51.70
30288;DHT22;17103;48.316;11.558;2023-05-10T00:59:34;19.20;51.20
30288;DHT22;17103;48.316;11.558;2023-05-10T01:02:00;19.20;51.50
30288;DHT22;17103;48.316;11.558;2023-05-10T01:04:26;19.20;50.90
30288;DHT22;17103;48.316;11.558;2023-05-10T01:06:53;19.20;51.00
30288;DHT22;17103;48.316;11.558;2023-05-10T01:09:21;19.20;51.30
30288;DHT22;17103;48.316;11.558;2023-05-10T01:30:59;19.00;51.70
30288;DHT22;17103;48.316;11.558;2023-05-10T01:33:41;18.90;52.30
30288;DHT22;17103;48.316;11.558;2023-05-10T01:36:23;18.90;52.20
30288;DHT22;17103;48.316;11.558;2023-05-10T01:41:41;18.90;52.50
30288;DHT22;17103;48.316;11.558;2023-05-10T01:47:00;18.90;52.30
30288;DHT22;17103;48.316;11.558;2023-05-10T01:49:33;18.90;52.10
30288;DHT22;17103;48.316;11.558;2023-05-10T01:52:06;19.00;52.10
30288;DHT22;17103;48.316;11.558;2023-05-10T01:54:34;18.80;51.80
30288;DHT22;17103;48.316;11.558;2023-05-10T01:57:05;18.90;51.80
30288;DHT22;17103;48.316;11.558;2023-05-10T01:59:34;18.90;52.10
30288;DHT22;17103;48.316;11.558;2023-05-10T02:02:07;18.90;52.10
30288;DHT22;17103;48.316;11.558;2023-05-10T02:04:35;18.80;51.50
30288;DHT22;17103;48.316;11.558;2023-05-10T02:07:03;18.80;52.10
30288;DHT22;17103;48.316;11.558;2023-05-10T02:09:31;18.80;52.20
30288;DHT22;17103;48.316;11.558;2023-05-10T02:11:59;18.80;52.10
30288;DHT22;17103;48.316;11.558;2023-05-10T02:14:26;18.80;51.50
30288;DHT22;17103;48.316;11.558;2023-05-10T02:16:53;18.70;51.70
30288;DHT22;17103;48.316;11.558;2023-05-10T02:19:22;18.70;52.10
30288;DHT22;17103;48.316;11.558;2023-05-10T02:21:49;18.70;52.30
30288;DHT22;17103;48.316;11.558;2023-05-10T02:24:17;18.70;51.90
30288;DHT22;17103;48.316;11.558;2023-05-10T02:26:44;18.80;52.10
30288;DHT22;17103;48.316;11.558;2023-05-10T02:29:11;18.70;52.10
30288;DHT22;17103;48.316;11.558;2023-05-10T02:31:38;18.70;52.00
30288;DHT22;17103;48.316;11.558;2023-05-10T02:34:04;19.00;52.10
30288;DHT22;17103;48.316;11.558;2023-05-10T02:36:33;18.70;52.20
30288;DHT22;17103;48.316;11.558;2023-05-10T02:39:00;18.70;52.30
30288;DHT22;17103;48.316;11.558;2023-05-10T02:41:28;18.70;52.40
30288;DHT22;17103;48.316;11.558;2023-05-10T02:43:57;18.70;52.60
30288;DHT22;17103;48.316;11.558;2023-05-10T02:46:24;18.70;53.00
30288;DHT22;17103;48.316;11.558;2023-05-10T02:48:50;18.70;52.60
30288;DHT22;17103;48.316;11.558;2023-05-10T02:51:18;18.70;52.90
30288;DHT22;17103;48.316;11.558;2023-05-10T02:53:46;18.60;53.10
30288;DHT22;17103;48.316;11.558;2023-05-10T02:56:16;18.60;53.40
30288;DHT22;17103;48.316;11.558;2023-05-10T02:58:45;18.60;53.20
30288;DHT22;17103;48.316;11.558;2023-05-10T03:01:13;18.50;53.00
30288;DHT22;17103;48.316;11.558;2023-05-10T03:03:39;18.40;53.00
30288;DHT22;17103;48.316;11.558;2023-05-10T03:06:04;18.40;53.40
30288;DHT22;17103;48.316;11.558;2023-05-10T03:08:30;18.40;53.00
30288;DHT22;17103;48.316;11.558;2023-05-10T03:14:02;18.40;53.60
30288;DHT22;17103;48.316;11.558;2023-05-10T03:16:45;18.40;53.30
30288;DHT22;17103;48.316;11.558;2023-05-10T03:19:27;18.40;53.70
30288;DHT22;17103;48.316;11.558;2023-05-10T03:21:59;18.40;53.10
30288;DHT22;17103;48.316;11.558;2023-05-10T03:24:28;18.50;53.50
30288;DHT22;17103;48.316;11.558;2023-05-10T03:26:56;18.40;53.40
30288;DHT22;17103;48.316;11.558;2023-05-10T03:29:25;18.40;53.00
30288;DHT22;17103;48.316;11.558;2023-05-10T03:31:51;18.40;52.80
30288;DHT22;17103;48.316;11.558;2023-05-10T03:34:23;18.40;53.10
30288;DHT22;17103;48.316;11.558;2023-05-10T03:36:49;18.40;53.30
30288;DHT22;17103;48.316;11.558;2023-05-10T03:39:14;18.30;54.40
30288;DHT22;17103;48.316;11.558;2023-05-10T03:41:40;18.40;53.80
30288;DHT22;17103;48.316;11.558;2023-05-10T03:44:06;18.30;54.10
30288;DHT22;17103;48.316;11.558;2023-05-10T03:46:32;18.20;53.20
30288;DHT22;17103;48.316;11.558;2023-05-10T03:48:58;18.20;53.70
30288;DHT22;17103;48.316;11.558;2023-05-10T03:51:23;18.20;53.40
30288;DHT22;17103;48.316;11.558;2023-05-10T03:53:53;18.20;53.80
30288;DHT22;17103;48.316;11.558;2023-05-10T03:56:19;18.20;53.90
30288;DHT22;17103;48.316;11.558;2023-05-10T03:58:46;18.10;54.20
30288;DHT22;17103;48.316;11.558;2023-05-10T04:01:12;18.10;54.60
30288;DHT22;17103;48.316;11.558;2023-05-10T04:03:37;18.10;55.00
30288;DHT22;17103;48.316;11.558;2023-05-10T04:06:04;18.00;54.80
30288;DHT22;17103;48.316;11.558;2023-05-10T04:08:30;18.00;54.80
30288;DHT22;17103;48.316;11.558;2023-05-10T04:11:05;18.00;54.80
30288;DHT22;17103;48.316;11.558;2023-05-10T04:13:32;18.00;55.40
30288;DHT22;17103;48.316;11.558;2023-05-10T04:15:57;18.00;54.90
30288;DHT22;17103;48.316;11.558;2023-05-10T04:18:23;17.90;55.30
30288;DHT22;17103;48.316;11.558;2023-05-10T04:20:48;18.00;55.20
30288;DHT22;17103;48.316;11.558;2023-05-10T04:23:14;17.90;55.70
30288;DHT22;17103;48.316;11.558;2023-05-10T04:25:42;17.90;56.40
30288;DHT22;17103;48.316;11.558;2023-05-10T04:28:08;17.80;55.80
30288;DHT22;17103;48.316;11.558;2023-05-10T04:30:34;17.80;56.40
30288;DHT22;17103;48.316;11.558;2023-05-10T04:33:00;17.80;56.40
30288;DHT22;17103;48.316;11.558;2023-05-10T04:35:27;17.70;56.70
30288;DHT22;17103;48.316;11.558;2023-05-10T04:37:53;17.60;56.70
30288;DHT22;17103;48.316;11.558;2023-05-10T04:40:19;17.70;56.70
30288;DHT22;17103;48.316;11.558;2023-05-10T04:42:45;17.60;57.20
30288;DHT22;17103;48.316;11.558;2023-05-10T04:45:11;17.50;57.50
30288;DHT22;17103;48.316;11.558;2023-05-10T04:47:36;17.50;57.10
30288;DHT22;17103;48.316;11.558;2023-05-10T04:50:03;17.50;57.40
30288;DHT22;17103;48.316;11.558;2023-05-10T04:52:29;17.40;57.20
30288;DHT22;17103;48.316;11.558;2023-05-10T04:54:54;17.40;57.70
30288;DHT22;17103;48.316;11.558;2023-05-10T04:57:20;17.50;57.60
30288;DHT22;17103;48.316;11.558;2023-05-10T04:59:46;17.40;58.50
30288;DHT22;17103;48.316;11.558;2023-05-10T05:02:12;17.40;58.60
30288;DHT22;17103;48.316;11.558;2023-05-10T05:04:38;17.40;58.20
30288;DHT22;17103;48.316;11.558;2023-05-10T05:07:03;17.30;58.20
30288;DHT22;17103;48.316;11.558;2023-05-10T05:09:29;17.30;58.50
30288;DHT22;17103;48.316;11.558;2023-05-10T05:11:54;17.20;58.30
30288;DHT22;17103;48.316;11.558;2023-05-10T05:14:20;17.10;58.50
30288;DHT22;17103;48.316;11.558;2023-05-10T05:16:46;17.10;58.60
30288;DHT22;17103;48.316;11.558;2023-05-10T05:19:12;17.00;58.10
30288;DHT22;17103;48.316;11.558;2023-05-10T05:21:37;17.00;58.40
30288;DHT22;17103;48.316;11.558;2023-05-10T05:24:03;17.00;58.60
30288;DHT22;17103;48.316;11.558;2023-05-10T05:26:29;16.90;58.70
30288;DHT22;17103;48.316;11.558;2023-05-10T05:28:56;16.80;58.50
30288;DHT22;17103;48.316;11.558;2023-05-10T05:31:22;16.80;58.60
30288;DHT22;17103;48.316;11.558;2023-05-10T05:33:47;16.80;58.60
30288;DHT22;17103;48.316;11.558;2023-05-10T05:36:14;16.80;58.20
30288;DHT22;17103;48.316;11.558;2023-05-10T05:38:40;16.70;58.20
30288;DHT22;17103;48.316;11.558;2023-05-10T05:41:06;16.70;58.10
30288;DHT22;17103;48.316;11.558;2023-05-10T05:43:31;16.60;58.30
30288;DHT22;17103;48.316;11.558;2023-05-10T05:45:57;16.50;58.40
30288;DHT22;17103;48.316;11.558;2023-05-10T05:48:23;16.60;58.90
30288;DHT22;17103;48.316;11.558;2023-05-10T05:50:49;16.40;59.10
30288;DHT22;17103;48.316;11.558;2023-05-10T05:53:15;16.40;58.80
30288;DHT22;17103;48.316;11.558;2023-05-10T05:55:51;16.30;59.10
30288;DHT22;17103;48.316;11.558;2023-05-10T05:58:17;16.40;59.80
30288;DHT22;17103;48.316;11.558;2023-05-10T06:00:42;16.30;59.70
30288;DHT22;17103;48.316;11.558;2023-05-10T06:03:08;16.30;59.60
30288;DHT22;17103;48.316;11.558;2023-05-10T06:05:33;16.20;59.60
30288;DHT22;17103;48.316;11.558;2023-05-10T06:07:59;16.20;60.00
30288;DHT22;17103;48.316;11.558;2023-05-10T06:10:25;16.10;60.20
30288;DHT22;17103;48.316;11.558;2023-05-10T06:12:52;16.10;60.70
30288;DHT22;17103;48.316;11.558;2023-05-10T06:15:18;16.00;60.50
30288;DHT22;17103;48.316;11.558;2023-05-10T06:17:44;16.00;60.20
30288;DHT22;17103;48.316;11.558;2023-05-10T06:20:10;16.00;60.80
30288;DHT22;17103;48.316;11.558;2023-05-10T06:22:36;16.00;60.80
30288;DHT22;17103;48.316;11.558;2023-05-10T06:25:01;16.00;61.00
30288;DHT22;17103;48.316;11.558;2023-05-10T06:27:28;16.00;60.80
30288;DHT22;17103;48.316;11.558;2023-05-10T06:29:53;16.00;60.50
30288;DHT22;17103;48.316;11.558;2023-05-10T06:32:19;16.00;60.20
30288;DHT22;17103;48.316;11.558;2023-05-10T06:34:44;16.10;60.80
30288;DHT22;17103;48.316;11.558;2023-05-10T06:37:10;16.10;60.60
30288;DHT22;17103;48.316;11.558;2023-05-10T06:39:36;16.10;60.60
30288;DHT22;17103;48.316;11.558;2023-05-10T06:42:02;16.10;60.20
30288;DHT22;17103;48.316;11.558;2023-05-10T06:44:29;16.20;60.00
30288;DHT22;17103;48.316;11.558;2023-05-10T06:46:54;16.20;60.10
30288;DHT22;17103;48.316;11.558;2023-05-10T06:49:21;16.30;59.80
30288;DHT22;17103;48.316;11.558;2023-05-10T06:51:47;16.20;60.00
30288;DHT22;17103;48.316;11.558;2023-05-10T06:54:13;16.30;60.50
30288;DHT22;17103;48.316;11.558;2023-05-10T06:56:39;16.30;60.50
30288;DHT22;17103;48.316;11.558;2023-05-10T06:59:05;16.40;60.40
30288;DHT22;17103;48.316;11.558;2023-05-10T07:01:31;16.50;59.80
30288;DHT22;17103;48.316;11.558;2023-05-10T07:03:58;16.40;59.30
30288;DHT22;17103;48.316;11.558;2023-05-10T07:06:24;16.50;59.30
30288;DHT22;17103;48.316;11.558;2023-05-10T07:08:49;16.50;59.70
30288;DHT22;17103;48.316;11.558;2023-05-10T07:11:15;16.60;59.60
30288;DHT22;17103;48.316;11.558;2023-05-10T07:13:49;16.50;59.60
30288;DHT22;17103;48.316;11.558;2023-05-10T07:16:15;16.60;60.00
30288;DHT22;17103;48.316;11.558;2023-05-10T07:18:41;16.60;59.90
30288;DHT22;17103;48.316;11.558;2023-05-10T07:21:06;16.60;59.70
30288;DHT22;17103;48.316;11.558;2023-05-10T07:23:32;16.70;59.60
30288;DHT22;17103;48.316;11.558;2023-05-10T07:25:57;16.70;59.50
30288;DHT22;17103;48.316;11.558;2023-05-10T07:28:23;16.80;59.10
30288;DHT22;17103;48.316;11.558;2023-05-10T07:30:52;16.80;58.70
30288;DHT22;17103;48.316;11.558;2023-05-10T07:33:18;16.80;59.00
30288;DHT22;17103;48.316;11.558;2023-05-10T07:35:43;16.80;59.40
30288;DHT22;17103;48.316;11.558;2023-05-10T07:38:09;16.80;59.70
30288;DHT22;17103;48.316;11.558;2023-05-10T07:40:36;16.90;59.40
30288;DHT22;17103;48.316;11.558;2023-05-10T07:43:05;17.00;59.40
30288;DHT22;17103;48.316;11.558;2023-05-10T07:45:31;17.00;58.50
30288;DHT22;17103;48.316;11.558;2023-05-10T07:47:56;17.00;57.80
30288;DHT22;17103;48.316;11.558;2023-05-10T07:50:22;17.20;58.10
30288;DHT22;17103;48.316;11.558;2023-05-10T07:52:48;17.10;57.70
30288;DHT22;17103;48.316;11.558;2023-05-10T07:55:13;17.10;57.30
30288;DHT22;17103;48.316;11.558;2023-05-10T07:57:39;17.10;57.30
30288;DHT22;17103;48.316;11.558;2023-05-10T08:00:06;17.20;57.60
30288;DHT22;17103;48.316;11.558;2023-05-10T08:02:34;17.20;57.60
30288;DHT22;17103;48.316;11.558;2023-05-10T08:05:00;17.20;57.60
30288;DHT22;17103;48.316;11.558;2023-05-10T08:07:25;17.30;57.60
30288;DHT22;17103;48.316;11.558;2023-05-10T08:09:51;17.30;57.70
30288;DHT22;17103;48.316;11.558;2023-05-10T08:12:17;17.30;57.80
30288;DHT22;17103;48.316;11.558;2023-05-10T08:14:42;17.30;57.20
30288;DHT22;17103;48.316;11.558;2023-05-10T08:17:08;17.30;56.40
30288;DHT22;17103;48.316;11.558;2023-05-10T08:19:33;17.30;56.60
30288;DHT22;17103;48.316;11.558;2023-05-10T08:21:59;17.30;56.60
30288;DHT22;17103;48.316;11.558;2023-05-10T08:24:25;17.30;56.50
30288;DHT22;17103;48.316;11.558;2023-05-10T08:26:50;17.40;56.50
30288;DHT22;17103;48.316;11.558;2023-05-10T08:29:16;17.40;56.50
30288;DHT22;17103;48.316;11.558;2023-05-10T08:31:42;17.40;56.50
30288;DHT22;17103;48.316;11.558;2023-05-10T08:34:08;17.50;56.40
30288;DHT22;17103;48.316;11.558;2023-05-10T08:36:33;17.50;55.90
30288;DHT22;17103;48.316;11.558;2023-05-10T08:38:59;17.40;55.80
30288;DHT22;17103;48.316;11.558;2023-05-10T08:41:25;17.40;55.80
30288;DHT22;17103;48.316;11.558;2023-05-10T08:43:52;17.40;56.00
30288;DHT22;17103;48.316;11.558;2023-05-10T08:46:20;17.40;55.60
30288;DHT22;17103;48.316;11.558;2023-05-10T08:48:56;17.40;55.80
30288;DHT22;17103;48.316;11.558;2023-05-10T08:51:25;17.40;55.70
30288;DHT22;17103;48.316;11.558;2023-05-10T08:53:55;17.40;55.50
30288;DHT22;17103;48.316;11.558;2023-05-10T08:56:22;17.40;55.50
30288;DHT22;17103;48.316;11.558;2023-05-10T08:58:49;17.50;55.60
30288;DHT22;17103;48.316;11.558;2023-05-10T09:01:16;17.50;55.70
30288;DHT22;17103;48.316;11.558;2023-05-10T09:03:42;17.60;56.10
30288;DHT22;17103;48.316;11.558;2023-05-10T09:06:09;17.60;56.20
30288;DHT22;17103;48.316;11.558;2023-05-10T09:08:37;17.70;56.00
30288;DHT22;17103;48.316;11.558;2023-05-10T09:11:03;17.80;55.70
30288;DHT22;17103;48.316;11.558;2023-05-10T09:13:29;17.90;55.50
30288;DHT22;17103;48.316;11.558;2023-05-10T09:15:59;18.00;55.30
30288;DHT22;17103;48.316;11.558;2023-05-10T09:18:25;18.10;55.00
30288;DHT22;17103;48.316;11.558;2023-05-10T09:20:50;18.10;54.70
30288;DHT22;17103;48.316;11.558;2023-05-10T09:23:16;18.20;54.60
30288;DHT22;17103;48.316;11.558;2023-05-10T09:25:45;18.30;54.60
30288;DHT22;17103;48.316;11.558;2023-05-10T09:28:11;18.30;54.40
30288;DHT22;17103;48.316;11.558;2023-05-10T09:30:37;18.40;54.10
30288;DHT22;17103;48.316;11.558;2023-05-10T09:33:03;18.40;53.80
30288;DHT22;17103;48.316;11.558;2023-05-10T09:35:31;18.50;53.20
30288;DHT22;17103;48.316;11.558;2023-05-10T09:38:05;18.50;52.80
30288;DHT22;17103;48.316;11.558;2023-05-10T09:40:31;18.60;52.20
30288;DHT22;17103;48.316;11.558;2023-05-10T09:43:06;18.60;52.10
30288;DHT22;17103;48.316;11.558;2023-05-10T09:45:33;18.70;51.40
30288;DHT22;17103;48.316;11.558;2023-05-10T09:48:00;18.70;51.70
30288;DHT22;17103;48.316;11.558;2023-05-10T09:50:28;18.70;51.70
30288;DHT22;17103;48.316;11.558;2023-05-10T09:53:02;18.60;51.60
30288;DHT22;17103;48.316;11.558;2023-05-10T09:55:44;18.80;52.00
30288;DHT22;17103;48.316;11.558;2023-05-10T09:58:14;18.80;52.50
30288;DHT22;17103;48.316;11.558;2023-05-10T10:00:44;18.80;52.60
30288;DHT22;17103;48.316;11.558;2023-05-10T10:03:28;18.90;52.90
30288;DHT22;17103;48.316;11.558;2023-05-10T10:05:55;18.80;53.40
30288;DHT22;17103;48.316;11.558;2023-05-10T10:08:22;18.90;53.40
30288;DHT22;17103;48.316;11.558;2023-05-10T10:10:48;18.90;53.60
30288;DHT22;17103;48.316;11.558;2023-05-10T10:13:14;18.90;53.50
30288;DHT22;17103;48.316;11.558;2023-05-10T10:15:42;18.90;53.70
30288;DHT22;17103;48.316;11.558;2023-05-10T10:18:13;19.00;54.40
30288;DHT22;17103;48.316;11.558;2023-05-10T10:20:39;19.10;53.50
30288;DHT22;17103;48.316;11.558;2023-05-10T10:23:05;19.10;53.50
30288;DHT22;17103;48.316;11.558;2023-05-10T10:25:31;19.20;53.30
30288;DHT22;17103;48.316;11.558;2023-05-10T10:30:48;19.40;52.70
30288;DHT22;17103;48.316;11.558;2023-05-10T10:36:06;19.50;52.90
30288;DHT22;17103;48.316;11.558;2023-05-10T10:41:30;19.60;53.00
30288;DHT22;17103;48.316;11.558;2023-05-10T10:47:22;19.70;53.10
30288;DHT22;17103;48.316;11.558;2023-05-10T10:52:27;19.80;52.90
30288;DHT22;17103;48.316;11.558;2023-05-10T10:55:10;19.90;53.20
30288;DHT22;17103;48.316;11.558;2023-05-10T11:00:32;19.90;53.00
30288;DHT22;17103;48.316;11.558;2023-05-10T11:03:11;20.00;53.70
30288;DHT22;17103;48.316;11.558;2023-05-10T11:05:49;20.10;53.10
30288;DHT22;17103;48.316;11.558;2023-05-10T11:08:32;20.20;53.20
30288;DHT22;17103;48.316;11.558;2023-05-10T11:18:49;20.30;51.90
30288;DHT22;17103;48.316;11.558;2023-05-10T11:21:16;20.30;51.80
30288;DHT22;17103;48.316;11.558;2023-05-10T11:23:49;20.30;51.90
30288;DHT22;17103;48.316;11.558;2023-05-10T11:26:15;20.30;50.40
30288;DHT22;17103;48.316;11.558;2023-05-10T11:28:45;20.30;50.40
30288;DHT22;17103;48.316;11.558;2023-05-10T11:31:14;20.20;49.30
30288;DHT22;17103;48.316;11.558;2023-05-10T11:33:51;20.20;48.80
30288;DHT22;17103;48.316;11.558;2023-05-10T11:36:34;20.20;48.40
30288;DHT22;17103;48.316;11.558;2023-05-10T11:38:59;20.10;48.60
30288;DHT22;17103;48.316;11.558;2023-05-10T11:41:27;20.10;48.30
30288;DHT22;17103;48.316;11.558;2023-05-10T11:43:54;20.00;48.50
30288;DHT22;17103;48.316;11.558;2023-05-10T11:46:24;19.90;48.00
30288;DHT22;17103;48.316;11.558;2023-05-10T11:48:57;19.80;47.70
30288;DHT22;17103;48.316;11.558;2023-05-10T11:51:24;19.70;47.90
30288;DHT22;17103;48.316;11.558;2023-05-10T11:53:53;19.60;48.10
30288;DHT22;17103;48.316;11.558;2023-05-10T11:56:18;19.60;47.60
30288;DHT22;17103;48.316;11.558;2023-05-10T11:58:51;19.50;48.10
30288;DHT22;17103;48.316;11.558;2023-05-10T12:01:17;19.40;48.80
30288;DHT22;17103;48.316;11.558;2023-05-10T12:03:42;19.40;49.10
30288;DHT22;17103;48.316;11.558;2023-05-10T12:06:08;19.40;49.10
30288;DHT22;17103;48.316;11.558;2023-05-10T12:08:34;19.30;49.50
30288;DHT22;17103;48.316;11.558;2023-05-10T12:11:08;19.30;49.40
30288;DHT22;17103;48.316;11.558;2023-05-10T12:13:39;19.10;48.90
30288;DHT22;17103;48.316;11.558;2023-05-10T12:16:25;19.10;49.30
30288;DHT22;17103;48.316;11.558;2023-05-10T12:18:53;19.10;49.40
30288;DHT22;17103;48.316;11.558;2023-05-10T12:21:20;18.80;49.70
30288;DHT22;17103;48.316;11.558;2023-05-10T12:23:48;18.80;49.50
30288;DHT22;17103;48.316;11.558;2023-05-10T12:26:14;18.70;49.20
30288;DHT22;17103;48.316;11.558;2023-05-10T12:28:40;18.50;49.30
30288;DHT22;17103;48.316;11.558;2023-05-10T12:31:06;18.40;49.80
30288;DHT22;17103;48.316;11.558;2023-05-10T12:33:42;18.20;50.00
30288;DHT22;17103;48.316;11.558;2023-05-10T12:36:09;18.10;50.20
30288;DHT22;17103;48.316;11.558;2023-05-10T12:38:37;18.00;50.50
30288;DHT22;17103;48.316;11.558;2023-05-10T12:41:08;17.90;50.50
30288;DHT22;17103;48.316;11.558;2023-05-10T12:43:35;17.80;50.90
30288;DHT22;17103;48.316;11.558;2023-05-10T12:46:11;17.70;51.30
30288;DHT22;17103;48.316;11.558;2023-05-10T12:48:37;17.60;51.60
30288;DHT22;17103;48.316;11.558;2023-05-10T12:51:04;17.60;51.90
30288;DHT22;17103;48.316;11.558;2023-05-10T12:53:30;17.50;52.60
30288;DHT22;17103;48.316;11.558;2023-05-10T12:55:57;17.40;52.60
30288;DHT22;17103;48.316;11.558;2023-05-10T12:58:22;17.30;52.60
30288;DHT22;17103;48.316;11.558;2023-05-10T13:00:48;17.30;52.90
30288;DHT22;17103;48.316;11.558;2023-05-10T13:03:14;17.30;53.40
30288;DHT22;17103;48.316;11.558;2023-05-10T13:05:41;17.30;53.90
30288;DHT22;17103;48.316;11.558;2023-05-10T13:08:06;17.30;54.20
30288;DHT22;17103;48.316;11.558;2023-05-10T13:10:32;17.20;54.40
30288;DHT22;17103;48.316;11.558;2023-05-10T13:12:58;17.20;54.80
30288;DHT22;17103;48.316;11.558;2023-05-10T13:15:25;17.20;54.90
30288;DHT22;17103;48.316;11.558;2023-05-10T13:17:51;17.20;54.90
30288;DHT22;17103;48.316;11.558;2023-05-10T13:20:17;17.10;54.80
30288;DHT22;17103;48.316;11.558;2023-05-10T13:22:43;17.10;54.70
30288;DHT22;17103;48.316;11.558;2023-05-10T13:25:10;17.10;55.10
30288;DHT22;17103;48.316;11.558;2023-05-10T13:27:37;17.10;54.70
30288;DHT22;17103;48.316;11.558;2023-05-10T13:30:03;17.10;54.40
30288;DHT22;17103;48.316;11.558;2023-05-10T13:32:29;17.20;54.20
30288;DHT22;17103;48.316;11.558;2023-05-10T13:34:55;17.10;54.30
30288;DHT22;17103;48.316;11.558;2023-05-10T13:37:21;17.10;54.10
30288;DHT22;17103;48.316;11.558;2023-05-10T13:39:47;17.20;54.20
30288;DHT22;17103;48.316;11.558;2023-05-10T13:42:13;17.20;54.00
30288;DHT22;17103;48.316;11.558;2023-05-10T13:44:39;17.20;53.90
30288;DHT22;17103;48.316;11.558;2023-05-10T13:47:05;17.30;53.90
30288;DHT22;17103;48.316;11.558;2023-05-10T13:49:31;17.30;54.00
30288;DHT22;17103;48.316;11.558;2023-05-10T13:51:56;17.40;54.10
30288;DHT22;17103;48.316;11.558;2023-05-10T13:54:23;17.40;54.50
30288;DHT22;17103;48.316;11.558;2023-05-10T13:56:49;17.40;54.70
30288;DHT22;17103;48.316;11.558;2023-05-10T13:59:15;17.40;55.00
30288;DHT22;17103;48.316;11.558;2023-05-10T14:01:41;17.40;55.10
30288;DHT22;17103;48.316;11.558;2023-05-10T14:04:08;17.40;55.70
30288;DHT22;17103;48.316;11.558;2023-05-10T14:06:36;17.40;56.10
30288;DHT22;17103;48.316;11.558;2023-05-10T14:09:02;17.40;56.40
30288;DHT22;17103;48.316;11.558;2023-05-10T14:11:28;17.40;56.30
30288;DHT22;17103;48.316;11.558;2023-05-10T14:13:54;17.40;56.20
30288;DHT22;17103;48.316;11.558;2023-05-10T14:16:19;17.30;56.40
30288;DHT22;17103;48.316;11.558;2023-05-10T14:18:46;17.30;56.50
30288;DHT22;17103;48.316;11.558;2023-05-10T14:21:12;17.30;56.40
30288;DHT22;17103;48.316;11.558;2023-05-10T14:23:38;17.30;57.00
30288;DHT22;17103;48.316;11.558;2023-05-10T14:26:04;17.40;57.50
30288;DHT22;17103;48.316;11.558;2023-05-10T14:28:29;17.40;57.80
30288;DHT22;17103;48.316;11.558;2023-05-10T14:30:55;17.40;57.60
30288;DHT22;17103;48.316;11.558;2023-05-10T14:33:20;17.30;57.80
30288;DHT22;17103;48.316;11.558;2023-05-10T14:35:46;17.40;57.70
30288;DHT22;17103;48.316;11.558;2023-05-10T14:38:13;17.40;57.90
30288;DHT22;17103;48.316;11.558;2023-05-10T14:40:40;17.40;58.80
30288;DHT22;17103;48.316;11.558;2023-05-10T14:43:06;17.30;59.10
30288;DHT22;17103;48.316;11.558;2023-05-10T14:45:32;17.40;58.40
30288;DHT22;17103;48.316;11.558;2023-05-10T14:47:58;17.30;58.20
30288;DHT22;17103;48.316;11.558;2023-05-10T14:50:24;17.30;58.20
30288;DHT22;17103;48.316;11.558;2023-05-10T14:52:50;17.30;58.40
30288;DHT22;17103;48.316;11.558;2023-05-10T14:55:15;17.30;58.10
30288;DHT22;17103;48.316;11.558;2023-05-10T14:57:41;17.30;58.10
30288;DHT22;17103;48.316;11.558;2023-05-10T15:00:07;17.30;58.30
30288;DHT22;17103;48.316;11.558;2023-05-10T15:02:33;17.30;58.20
30288;DHT22;17103;48.316;11.558;2023-05-10T15:04:59;17.30;58.40
30288;DHT22;17103;48.316;11.558;2023-05-10T15:07:24;17.30;58.00
30288;DHT22;17103;48.316;11.558;2023-05-10T15:09:51;17.30;58.30
30288;DHT22;17103;48.316;11.558;2023-05-10T15:12:18;17.30;58.10
30288;DHT22;17103;48.316;11.558;2023-05-10T15:14:43;17.20;58.10
30288;DHT22;17103;48.316;11.558;2023-05-10T15:17:12;17.10;57.40
30288;DHT22;17103;48.316;11.558;2023-05-10T15:19:37;17.10;57.10
30288;DHT22;17103;48.316;11.558;2023-05-10T15:22:04;17.00;57.10
30288;DHT22;17103;48.316;11.558;2023-05-10T15:24:30;17.00;57.40
30288;DHT22;17103;48.316;11.558;2023-05-10T15:26:56;16.90;57.30
30288;DHT22;17103;48.316;11.558;2023-05-10T15:29:22;17.00;57.20
30288;DHT22;17103;48.316;11.558;2023-05-10T15:31:49;16.80;57.00
30288;DHT22;17103;48.316;11.558;2023-05-10T15:34:16;16.80;57.00
30288;DHT22;17103;48.316;11.558;2023-05-10T15:36:42;16.80;57.10
30288;DHT22;17103;48.316;11.558;2023-05-10T15:39:07;16.80;57.00
30288;DHT22;17103;48.316;11.558;2023-05-10T15:41:35;16.70;57.10
30288;DHT22;17103;48.316;11.558;2023-05-10T15:44:01;16.70;57.00
30288;DHT22;17103;48.316;11.558;2023-05-10T15:46:28;16.70;57.00
30288;DHT22;17103;48.316;11.558;2023-05-10T15:48:54;16.70;57.10
30288;DHT22;17103;48.316;11.558;2023-05-10T15:51:20;16.70;57.20
30288;DHT22;17103;48.316;11.558;2023-05-10T15:53:46;16.60;57.50
30288;DHT22;17103;48.316;11.558;2023-05-10T15:56:12;16.60;58.20
30288;DHT22;17103;48.316;11.558;2023-05-10T15:58:38;16.60;58.40
30288;DHT22;17103;48.316;11.558;2023-05-10T16:01:04;16.50;58.80
30288;DHT22;17103;48.316;11.558;2023-05-10T16:03:35;16.50;59.30
30288;DHT22;17103;48.316;11.558;2023-05-10T16:06:01;16.40;59.70
30288;DHT22;17103;48.316;11.558;2023-05-10T16:08:29;16.30;59.10